createdAt,value
2022-12-27T00:01:23.297Z,1.58
2022-12-27T00:03:49.899Z,1.57
2022-12-27T00:06:20.183Z,1.47
2022-12-27T00:08:47.185Z,1.42
2022-12-27T00:11:17.167Z,1.39
2022-12-27T00:13:43.786Z,1.35
2022-12-27T00:16:12.671Z,1.26
2022-12-27T00:18:40.574Z,1.19
2022-12-27T00:21:08.659Z,1.22
2022-12-27T00:23:39.187Z,1.21
2022-12-27T00:26:13.262Z,1.31
2022-12-27T00:28:39.822Z,1.27
2022-12-27T00:31:06.573Z,1.33
2022-12-27T00:33:35.003Z,1.37
2022-12-27T00:36:04.304Z,1.42
2022-12-27T00:38:32.425Z,1.45
2022-12-27T00:40:59.754Z,1.49
2022-12-27T00:43:26.541Z,1.53
2022-12-27T00:45:53.741Z,1.55
2022-12-27T00:48:20.757Z,1.57
2022-12-27T00:50:47.688Z,1.48
2022-12-27T00:53:14.387Z,1.52
2022-12-27T00:55:45.267Z,1.46
2022-12-27T00:58:12.061Z,1.40
2022-12-27T01:00:38.757Z,1.29
2022-12-27T01:03:05.351Z,1.13
2022-12-27T01:05:32.291Z,1.27
2022-12-27T01:07:58.882Z,1.23
2022-12-27T01:10:25.536Z,1.17
2022-12-27T01:12:52.064Z,1.13
2022-12-27T01:15:18.657Z,1.04
2022-12-27T01:17:45.203Z,1.09
2022-12-27T01:20:11.798Z,1.11
2022-12-27T01:22:38.390Z,1.02
2022-12-27T01:25:05.613Z,0.89
2022-12-27T01:27:32.040Z,0.86
2022-12-27T01:29:58.872Z,0.78
2022-12-27T01:32:25.419Z,0.77
2022-12-27T01:34:51.940Z,0.88
2022-12-27T01:37:18.547Z,0.93
2022-12-27T01:39:45.170Z,1.08
2022-12-27T01:42:37.679Z,1.13
2022-12-27T01:45:14.582Z,1.01
2022-12-27T01:47:46.874Z,1.26
2022-12-27T01:50:33.695Z,1.31
2022-12-27T01:53:03.138Z,1.30
2022-12-27T01:55:38.529Z,1.17
2022-12-27T01:58:35.472Z,1.18
2022-12-27T02:01:05.139Z,1.16
2022-12-27T02:03:39.143Z,1.22
2022-12-27T02:06:08.434Z,1.14
2022-12-27T02:08:44.000Z,1.09
2022-12-27T02:11:13.075Z,1.08
2022-12-27T02:13:46.580Z,1.09
2022-12-27T02:16:18.864Z,1.05
2022-12-27T02:18:46.676Z,0.95
2022-12-27T02:21:43.075Z,0.92
2022-12-27T02:24:30.968Z,0.94
2022-12-27T02:27:18.929Z,0.86
2022-12-27T02:30:08.126Z,0.82
2022-12-27T02:33:03.494Z,0.75
2022-12-27T02:35:44.117Z,0.67
2022-12-27T02:38:41.939Z,0.58
2022-12-27T02:41:30.427Z,0.38
2022-12-27T02:44:16.904Z,0.52
2022-12-27T02:47:03.661Z,0.49
2022-12-27T02:49:57.900Z,0.47
2022-12-27T02:53:03.883Z,0.50
2022-12-27T02:56:08.431Z,0.60
2022-12-27T02:58:34.888Z,0.67
2022-12-27T03:01:29.288Z,0.71
2022-12-27T03:04:15.213Z,0.65
2022-12-27T03:06:52.736Z,0.65
2022-12-27T03:09:51.223Z,0.54
2022-12-27T03:13:00.948Z,0.69
2022-12-27T03:16:04.874Z,0.72
2022-12-27T03:18:31.384Z,0.71
2022-12-27T03:21:18.220Z,0.66
2022-12-27T03:24:04.585Z,0.69
2022-12-27T03:26:34.878Z,0.67
2022-12-27T03:29:21.954Z,0.64
2022-12-27T03:32:12.822Z,0.60
2022-12-27T03:34:45.455Z,0.53
2022-12-27T03:37:34.496Z,0.65
2022-12-27T03:40:34.953Z,0.54
2022-12-27T03:43:10.834Z,0.50
2022-12-27T03:46:09.662Z,0.37
2022-12-27T03:49:00.658Z,0.38
2022-12-27T03:51:32.700Z,0.32
2022-12-27T03:54:07.256Z,0.41
2022-12-27T03:56:34.008Z,0.31
2022-12-27T03:59:02.406Z,0.52
2022-12-27T04:01:28.968Z,0.46
2022-12-27T04:03:55.661Z,0.52
2022-12-27T04:06:22.218Z,0.61
2022-12-27T04:09:07.195Z,0.58
2022-12-27T04:11:52.053Z,0.63
2022-12-27T04:14:37.597Z,0.64
2022-12-27T04:17:22.627Z,0.68
2022-12-27T04:20:07.465Z,0.72
2022-12-27T04:22:52.699Z,0.70
2022-12-27T04:25:37.601Z,0.70
2022-12-27T04:28:22.817Z,0.59
2022-12-27T04:31:07.774Z,0.60
2022-12-27T04:33:52.936Z,0.60
2022-12-27T04:36:19.492Z,0.50
2022-12-27T04:38:46.005Z,0.45
2022-12-27T04:41:30.876Z,0.47
2022-12-27T04:44:15.772Z,0.29
2022-12-27T04:47:01.360Z,0.45
2022-12-27T04:49:46.700Z,0.42
2022-12-27T04:52:40.323Z,0.36
2022-12-27T04:55:25.036Z,0.46
2022-12-27T04:57:52.598Z,0.42
2022-12-27T05:00:39.897Z,0.37
2022-12-27T05:03:14.099Z,0.21
2022-12-27T05:05:42.670Z,0.19
2022-12-27T05:08:28.845Z,0.24
2022-12-27T05:11:14.213Z,0.29
2022-12-27T05:13:59.291Z,0.35
2022-12-27T05:16:36.751Z,0.36
2022-12-27T05:19:04.479Z,0.31
2022-12-27T05:21:31.227Z,0.26
2022-12-27T05:24:36.054Z,0.25
2022-12-27T05:27:02.613Z,0.17
2022-12-27T05:29:35.871Z,0.07
2022-12-27T05:32:03.349Z,-0.02
2022-12-27T05:34:32.156Z,-0.06
2022-12-27T05:36:58.663Z,-0.20
2022-12-27T05:39:25.184Z,-0.25
2022-12-27T05:41:52.216Z,-0.26
2022-12-27T05:44:18.777Z,-0.30
2022-12-27T05:46:45.286Z,-0.27
2022-12-27T05:49:11.840Z,-0.22
2022-12-27T05:51:38.365Z,-0.32
2022-12-27T05:54:05.120Z,-0.24
2022-12-27T05:56:31.714Z,-0.26
2022-12-27T05:58:58.476Z,-0.31
2022-12-27T06:01:25.084Z,-0.15
2022-12-27T06:03:51.648Z,-0.12
2022-12-27T06:06:18.197Z,-0.06
2022-12-27T06:08:44.785Z,-0.07
2022-12-27T06:11:14.753Z,0.10
2022-12-27T06:13:43.094Z,0.14
2022-12-27T06:16:12.173Z,0.17
2022-12-27T06:18:40.398Z,0.15
2022-12-27T06:21:11.398Z,0.12
2022-12-27T06:23:39.644Z,0.16
2022-12-27T06:26:18.737Z,0.25
2022-12-27T06:28:45.508Z,0.20
2022-12-27T06:31:12.399Z,0.24
2022-12-27T06:33:39.048Z,0.35
2022-12-27T06:36:12.539Z,0.49
2022-12-27T06:38:39.391Z,0.52
2022-12-27T06:41:09.035Z,0.53
2022-12-27T06:43:35.762Z,0.47
2022-12-27T06:46:05.177Z,0.58
2022-12-27T06:48:32.032Z,0.50
2022-12-27T06:50:58.756Z,0.24
2022-12-27T06:53:25.411Z,0.34
2022-12-27T06:55:52.017Z,0.37
2022-12-27T06:58:18.710Z,0.26
2022-12-27T07:00:45.303Z,0.52
2022-12-27T07:03:11.873Z,0.59
2022-12-27T07:05:38.792Z,0.62
2022-12-27T07:08:06.114Z,0.79
2022-12-27T07:10:32.553Z,0.86
2022-12-27T07:12:59.335Z,0.91
2022-12-27T07:15:25.924Z,0.88
2022-12-27T07:17:52.499Z,0.80
2022-12-27T07:20:19.219Z,0.92
2022-12-27T07:22:45.823Z,0.99
2022-12-27T07:25:12.458Z,0.96
2022-12-27T07:27:39.034Z,1.07
2022-12-27T07:30:06.165Z,1.16
2022-12-27T07:32:32.754Z,1.23
2022-12-27T07:34:59.401Z,1.18
2022-12-27T07:37:25.989Z,1.14
2022-12-27T07:39:52.571Z,1.30
2022-12-27T07:42:19.163Z,1.27
2022-12-27T07:44:45.702Z,1.21
2022-12-27T07:47:12.320Z,1.21
2022-12-27T07:49:38.908Z,1.22
2022-12-27T07:52:05.517Z,1.32
2022-12-27T07:54:32.111Z,1.37
2022-12-27T07:56:58.682Z,1.27
2022-12-27T07:59:27.457Z,1.52
2022-12-27T08:02:06.255Z,1.65
2022-12-27T08:04:36.019Z,1.69
2022-12-27T08:07:07.782Z,1.72
2022-12-27T08:09:37.967Z,1.85
2022-12-27T08:12:05.059Z,1.92
2022-12-27T08:14:31.677Z,1.95
2022-12-27T08:17:03.828Z,1.95
2022-12-27T08:19:30.571Z,2.02
2022-12-27T08:21:57.196Z,2.09
2022-12-27T08:24:24.671Z,2.21
2022-12-27T08:26:51.231Z,2.18
2022-12-27T08:29:17.771Z,2.33
2022-12-27T08:31:44.394Z,2.49
2022-12-27T08:34:10.956Z,2.61
2022-12-27T08:39:24.520Z,2.75
2022-12-27T08:41:53.971Z,2.79
2022-12-27T08:44:20.675Z,2.91
2022-12-27T08:46:47.607Z,3.01
2022-12-27T08:49:14.299Z,3.24
2022-12-27T08:51:41.716Z,3.38
2022-12-27T08:54:09.044Z,3.50
2022-12-27T08:56:36.027Z,3.57
2022-12-27T08:59:02.819Z,3.72
2022-12-27T09:01:29.455Z,4.43
2022-12-27T09:03:56.095Z,6.62
2022-12-27T09:06:24.855Z,9.40
2022-12-27T09:08:52.663Z,11.78
2022-12-27T09:11:22.208Z,12.88
2022-12-27T09:13:48.886Z,13.19
2022-12-27T09:16:18.913Z,13.16
2022-12-27T09:18:49.002Z,13.18
2022-12-27T09:21:19.695Z,12.97
2022-12-27T09:23:47.337Z,11.75
2022-12-27T09:26:22.466Z,11.19
2022-12-27T09:28:50.119Z,10.27
2022-12-27T09:31:19.293Z,9.63
2022-12-27T09:33:46.283Z,9.06
2022-12-27T09:36:14.924Z,8.74
2022-12-27T09:38:42.088Z,8.55
2022-12-27T09:44:48.682Z,7.87
2022-12-27T09:47:31.707Z,7.87
2022-12-27T09:50:06.414Z,7.99
2022-12-27T09:53:08.521Z,8.23
2022-12-27T09:55:52.044Z,8.31
2022-12-27T09:58:33.892Z,8.44
2022-12-27T10:01:01.608Z,8.46
2022-12-27T10:03:30.598Z,8.46
2022-12-27T10:06:05.038Z,8.51
2022-12-27T10:09:24.109Z,8.60
2022-12-27T10:12:09.940Z,8.50
2022-12-27T10:14:42.651Z,8.76
2022-12-27T10:17:52.858Z,9.08
2022-12-27T10:20:28.706Z,9.22
2022-12-27T10:23:06.454Z,9.38
2022-12-27T10:25:35.048Z,9.43
2022-12-27T10:28:14.360Z,9.59
2022-12-27T10:30:42.506Z,9.61
2022-12-27T10:33:20.756Z,9.50
2022-12-27T10:35:48.811Z,9.62
2022-12-27T10:38:15.378Z,9.57
2022-12-27T10:41:05.463Z,9.65
2022-12-27T10:43:38.508Z,9.98
2022-12-27T10:46:15.101Z,10.13
2022-12-27T10:49:19.686Z,10.15
2022-12-27T10:51:41.211Z,10.33
2022-12-27T10:54:14.200Z,10.36
2022-12-27T10:56:44.179Z,10.54
2022-12-27T10:59:20.211Z,10.40
2022-12-27T11:02:08.540Z,10.48
2022-12-27T11:04:35.186Z,10.82
2022-12-27T11:07:04.349Z,11.10
2022-12-27T11:09:32.912Z,11.11
2022-12-27T11:12:14.285Z,11.01
2022-12-27T11:14:56.119Z,10.99
2022-12-27T11:17:30.375Z,11.13
2022-12-27T11:20:01.315Z,11.14
2022-12-27T11:22:28.028Z,11.22
2022-12-27T11:24:59.160Z,11.47
2022-12-27T11:27:28.359Z,11.55
2022-12-27T11:29:58.221Z,11.53
2022-12-27T11:32:25.227Z,11.68
2022-12-27T11:34:54.777Z,11.66
2022-12-27T11:37:25.492Z,11.81
2022-12-27T11:39:55.101Z,11.96
2022-12-27T11:42:40.266Z,12.06
2022-12-27T11:45:19.204Z,12.07
2022-12-27T11:48:11.561Z,12.10
2022-12-27T11:50:56.482Z,12.04
2022-12-27T11:53:41.763Z,12.26
2022-12-27T11:57:00.924Z,12.36
2022-12-27T11:59:38.083Z,12.40
2022-12-27T12:02:08.225Z,12.26
2022-12-27T12:04:49.769Z,11.97
2022-12-27T12:07:37.518Z,11.97
2022-12-27T12:10:27.220Z,11.78
2022-12-27T12:12:56.951Z,11.85
2022-12-27T12:15:53.832Z,11.85
2022-12-27T12:18:38.754Z,11.85
2022-12-27T12:21:34.906Z,11.98
2022-12-27T12:24:29.547Z,12.00
2022-12-27T12:27:22.381Z,12.18
2022-12-27T12:30:12.483Z,12.25
2022-12-27T12:32:39.104Z,12.28
2022-12-27T12:35:47.005Z,12.42
2022-12-27T12:38:40.771Z,12.61
2022-12-27T12:41:45.498Z,12.76
2022-12-27T12:44:58.633Z,12.86
2022-12-27T12:47:46.412Z,12.97
2022-12-27T12:50:34.020Z,12.99
2022-12-27T12:53:19.867Z,12.83
2022-12-27T12:56:13.341Z,12.70
2022-12-27T12:58:43.173Z,12.51
2022-12-27T13:01:21.966Z,12.28
2022-12-27T13:04:27.410Z,12.06
2022-12-27T13:06:59.854Z,12.11
2022-12-27T13:10:01.954Z,12.23
2022-12-27T13:12:52.293Z,12.49
2022-12-27T13:15:47.839Z,12.48
2022-12-27T13:18:22.747Z,12.41
2022-12-27T13:21:11.906Z,12.50
2022-12-27T13:23:55.219Z,12.63
2022-12-27T13:26:53.978Z,12.67
2022-12-27T13:29:37.169Z,12.71
2022-12-27T13:32:06.400Z,12.90
2022-12-27T13:35:04.929Z,13.02
2022-12-27T13:37:37.517Z,13.08
2022-12-27T13:40:17.514Z,13.13
2022-12-27T13:43:05.965Z,13.21
2022-12-27T13:45:52.831Z,13.01
2022-12-27T13:48:37.730Z,12.95
2022-12-27T13:51:13.239Z,12.81
2022-12-27T13:53:51.739Z,12.48
2022-12-27T13:56:55.166Z,12.10
2022-12-27T13:59:40.911Z,11.96
2022-12-27T14:02:32.598Z,11.78
2022-12-27T14:05:02.424Z,11.63
2022-12-27T14:07:50.840Z,11.61
2022-12-27T14:10:32.127Z,11.46
2022-12-27T14:13:26.588Z,11.38
2022-12-27T14:16:18.698Z,11.18
2022-12-27T14:19:14.947Z,10.99
2022-12-27T14:21:55.020Z,10.83
2022-12-27T14:24:59.050Z,10.64
2022-12-27T14:27:59.435Z,10.45
2022-12-27T14:31:03.634Z,10.36
2022-12-27T14:33:33.011Z,9.95
2022-12-27T14:36:19.165Z,9.86
2022-12-27T14:39:21.240Z,9.76
2022-12-27T14:42:09.739Z,9.68
2022-12-27T14:45:10.427Z,9.66
2022-12-27T14:47:48.788Z,9.52
2022-12-27T14:50:40.078Z,9.35
2022-12-27T14:53:38.669Z,9.28
2022-12-27T14:56:22.427Z,9.10
2022-12-27T14:59:26.198Z,9.05
2022-12-27T15:02:04.788Z,9.00
2022-12-27T15:04:43.264Z,8.87
2022-12-27T15:07:15.551Z,8.84
2022-12-27T15:10:03.661Z,8.78
2022-12-27T15:12:52.905Z,8.64
2022-12-27T15:15:37.604Z,8.54
2022-12-27T15:18:27.408Z,8.51
2022-12-27T15:21:13.372Z,8.44
2022-12-27T15:24:01.661Z,8.33
2022-12-27T15:26:42.286Z,8.34
2022-12-27T15:29:24.275Z,8.31
2022-12-27T15:31:59.649Z,8.27
2022-12-27T15:35:10.818Z,8.23
2022-12-27T15:37:56.232Z,8.10
2022-12-27T15:40:35.000Z,8.14
2022-12-27T15:43:26.492Z,8.28
2022-12-27T15:45:54.054Z,8.29
2022-12-27T15:49:05.136Z,8.58
2022-12-27T15:52:00.461Z,9.19
2022-12-27T15:54:53.455Z,9.52
2022-12-27T15:57:39.269Z,9.68
2022-12-27T16:00:32.445Z,9.98
2022-12-27T16:03:28.228Z,10.13
2022-12-27T16:05:55.097Z,10.37
2022-12-27T16:08:29.033Z,10.50
2022-12-27T16:10:56.951Z,10.54
2022-12-27T16:13:41.392Z,10.72
2022-12-27T16:16:11.851Z,10.76
2022-12-27T16:18:51.274Z,10.79
2022-12-27T16:21:26.501Z,10.84
2022-12-27T16:24:21.000Z,10.85
2022-12-27T16:26:59.650Z,10.78
2022-12-27T16:29:33.616Z,10.92
2022-12-27T16:32:19.796Z,10.94
2022-12-27T16:34:50.890Z,11.04
2022-12-27T16:37:25.595Z,11.09
2022-12-27T16:40:38.069Z,11.14
2022-12-27T16:43:25.165Z,11.00
2022-12-27T16:46:24.856Z,10.94
2022-12-27T16:49:23.824Z,10.82
2022-12-27T16:51:50.373Z,10.79
2022-12-27T16:54:49.760Z,10.73
2022-12-27T16:57:33.705Z,10.72
2022-12-27T17:00:00.288Z,10.67
2022-12-27T17:02:43.364Z,10.57
2022-12-27T17:05:15.821Z,10.61
2022-12-27T17:07:53.226Z,10.63
2022-12-27T17:10:28.561Z,10.57
2022-12-27T17:12:59.753Z,10.51
2022-12-27T17:15:27.391Z,10.35
2022-12-27T17:17:56.601Z,10.27
2022-12-27T17:20:23.993Z,10.18
2022-12-27T17:22:53.795Z,10.10
2022-12-27T17:25:30.962Z,9.80
2022-12-27T17:28:08.124Z,9.84
2022-12-27T17:30:45.069Z,9.76
2022-12-27T17:33:11.576Z,9.75
2022-12-27T17:35:50.039Z,9.75
2022-12-27T17:38:34.765Z,9.87
2022-12-27T17:41:51.053Z,9.85
2022-12-27T17:44:39.169Z,9.90
2022-12-27T17:47:13.458Z,9.81
2022-12-27T17:49:42.693Z,9.73
2022-12-27T17:52:37.881Z,9.75
2022-12-27T17:55:40.534Z,9.63
2022-12-27T17:58:10.482Z,9.43
2022-12-27T18:00:58.207Z,9.43
2022-12-27T18:03:35.843Z,9.46
2022-12-27T18:06:02.840Z,9.63
2022-12-27T18:08:34.078Z,9.78
2022-12-27T18:11:03.172Z,9.71
2022-12-27T18:13:44.247Z,9.79
2022-12-27T18:16:37.381Z,9.81
2022-12-27T18:19:04.484Z,9.70
2022-12-27T18:21:32.119Z,9.79
2022-12-27T18:23:59.123Z,9.80
2022-12-27T18:26:38.360Z,9.83
2022-12-27T18:29:06.007Z,9.79
2022-12-27T18:31:38.115Z,9.84
2022-12-27T18:34:15.801Z,9.81
2022-12-27T18:36:50.144Z,9.71
2022-12-27T18:39:40.009Z,9.66
2022-12-27T18:42:24.778Z,9.59
2022-12-27T18:44:57.429Z,9.47
2022-12-27T18:47:29.608Z,9.37
2022-12-27T18:50:01.985Z,9.27
2022-12-27T18:52:40.653Z,9.19
2022-12-27T18:55:16.929Z,9.05
2022-12-27T18:57:44.190Z,9.04
2022-12-27T19:00:24.510Z,8.88
2022-12-27T19:02:53.389Z,8.79
2022-12-27T19:05:20.011Z,8.69
2022-12-27T19:07:49.826Z,8.58
2022-12-27T19:10:23.352Z,8.42
2022-12-27T19:12:52.312Z,8.38
2022-12-27T19:15:40.226Z,8.23
2022-12-27T19:18:36.107Z,8.07
2022-12-27T19:21:05.839Z,8.02
2022-12-27T19:23:43.010Z,7.99
2022-12-27T19:26:15.388Z,7.88
2022-12-27T19:29:00.763Z,7.67
2022-12-27T19:31:27.745Z,7.53
2022-12-27T19:33:58.813Z,7.41
2022-12-27T19:36:47.581Z,7.52
2022-12-27T19:39:38.987Z,7.52
2022-12-27T19:42:07.934Z,7.47
2022-12-27T19:44:34.583Z,7.48
2022-12-27T19:47:01.207Z,7.43
2022-12-27T19:49:44.498Z,7.51
2022-12-27T19:52:18.691Z,7.50
2022-12-27T19:54:46.500Z,7.46
2022-12-27T19:57:13.474Z,7.60
2022-12-27T19:59:40.591Z,7.57
2022-12-27T20:02:08.936Z,7.57
2022-12-27T20:04:35.808Z,7.52
2022-12-27T20:07:02.826Z,7.33
2022-12-27T20:09:29.463Z,7.40
2022-12-27T20:11:56.093Z,7.35
2022-12-27T20:14:22.732Z,7.30
2022-12-27T20:16:49.485Z,7.35
2022-12-27T20:19:18.001Z,7.26
2022-12-27T20:21:44.752Z,7.26
2022-12-27T20:24:12.683Z,7.27
2022-12-27T20:26:40.327Z,7.24
2022-12-27T20:29:06.966Z,7.22
2022-12-27T20:31:35.668Z,7.21
2022-12-27T20:34:07.295Z,7.22
2022-12-27T20:36:33.961Z,7.17
2022-12-27T20:39:00.620Z,7.14
2022-12-27T20:41:28.486Z,7.09
2022-12-27T20:43:56.439Z,6.92
2022-12-27T20:46:23.396Z,6.98
2022-12-27T20:48:50.504Z,6.78
2022-12-27T20:51:20.271Z,6.64
2022-12-27T20:53:49.269Z,6.50
2022-12-27T20:56:16.791Z,6.37
2022-12-27T20:58:43.592Z,6.18
2022-12-27T21:01:16.375Z,6.20
2022-12-27T21:03:44.418Z,6.21
2022-12-27T21:06:17.706Z,6.22
2022-12-27T21:08:48.980Z,6.20
2022-12-27T21:11:31.473Z,6.36
2022-12-27T21:13:59.576Z,6.41
2022-12-27T21:16:28.346Z,6.42
2022-12-27T21:18:55.903Z,6.47
2022-12-27T21:21:27.944Z,6.51
2022-12-27T21:23:56.255Z,6.55
2022-12-27T21:26:26.066Z,6.60
2022-12-27T21:28:53.085Z,6.59
2022-12-27T21:31:20.195Z,6.49
2022-12-27T21:33:47.463Z,6.45
2022-12-27T21:36:16.916Z,6.37
2022-12-27T21:38:43.836Z,6.38
2022-12-27T21:41:14.011Z,6.27
2022-12-27T21:43:41.041Z,6.40
2022-12-27T21:46:11.634Z,6.32
2022-12-27T21:48:38.327Z,6.27
2022-12-27T21:51:14.089Z,6.29
2022-12-27T21:53:41.610Z,6.24
2022-12-27T21:56:08.691Z,6.10
2022-12-27T21:58:37.638Z,6.06
2022-12-27T22:01:16.184Z,6.02
2022-12-27T22:03:45.141Z,5.78
2022-12-27T22:06:17.162Z,5.95
2022-12-27T22:08:45.962Z,5.77
2022-12-27T22:11:13.259Z,5.56
2022-12-27T22:13:39.999Z,5.54
2022-12-27T22:16:08.606Z,5.47
2022-12-27T22:18:37.023Z,5.37
2022-12-27T22:21:05.892Z,5.40
2022-12-27T22:23:37.649Z,5.50
2022-12-27T22:26:05.822Z,5.57
2022-12-27T22:28:32.426Z,5.57
2022-12-27T22:30:59.076Z,5.58
2022-12-27T22:33:25.646Z,5.44
2022-12-27T22:35:52.200Z,5.30
2022-12-27T22:38:18.760Z,5.18
2022-12-27T22:40:46.268Z,5.10
2022-12-27T22:43:13.376Z,4.98
2022-12-27T22:45:43.443Z,4.99
2022-12-27T22:48:12.038Z,4.99
2022-12-27T22:50:38.737Z,5.03
2022-12-27T22:53:05.292Z,4.96
2022-12-27T22:55:31.899Z,4.96
2022-12-27T22:57:58.453Z,4.88
2022-12-27T23:00:25.113Z,4.92
2022-12-27T23:02:51.822Z,4.90
2022-12-27T23:05:18.517Z,4.78
2022-12-27T23:08:05.117Z,4.57
2022-12-27T23:10:31.983Z,4.50
2022-12-27T23:12:58.550Z,4.62
2022-12-27T23:15:25.240Z,4.60
2022-12-27T23:17:52.801Z,4.55
2022-12-27T23:20:19.664Z,4.59
2022-12-27T23:22:46.300Z,4.65
2022-12-27T23:25:12.827Z,4.55
2022-12-27T23:27:39.401Z,4.45
2022-12-27T23:30:06.571Z,4.57
2022-12-27T23:32:33.174Z,4.64
2022-12-27T23:34:59.945Z,4.67
2022-12-27T23:37:26.603Z,4.59
2022-12-27T23:39:53.159Z,4.47
2022-12-27T23:42:19.683Z,4.42
2022-12-27T23:44:46.308Z,4.34
2022-12-27T23:47:12.898Z,4.31
2022-12-27T23:49:39.403Z,4.24
2022-12-27T23:52:05.945Z,4.26
2022-12-27T23:54:33.199Z,4.31
2022-12-27T23:57:19.867Z,4.34
2022-12-27T23:59:46.342Z,4.30
